sensor_id;sensor_type;location;lat;lon;timestamp;P1;durP1;ratioP1;P2;durP2;ratioP2
60032;SDS011;45905;50.570;10.428;2022-08-19T00:02:12;28.13;;;10.97;;
60032;SDS011;45905;50.570;10.428;2022-08-19T00:04:39;30.57;;;12.77;;
60032;SDS011;45905;50.570;10.428;2022-08-19T00:07:06;32.97;;;14.13;;
60032;SDS011;45905;50.570;10.428;2022-08-19T00:09:34;28.20;;;10.70;;
60032;SDS011;45905;50.570;10.428;2022-08-19T00:12:02;24.40;;;10.93;;
60032;SDS011;45905;50.570;10.428;2022-08-19T00:14:29;28.13;;;11.60;;
60032;SDS011;45905;50.570;10.428;2022-08-19T00:17:01;27.03;;;11.97;;
60032;SDS011;45905;50.570;10.428;2022-08-19T00:19:29;25.93;;;12.13;;
60032;SDS011;45905;50.570;10.428;2022-08-19T00:21:57;24.03;;;13.47;;
60032;SDS011;45905;50.570;10.428;2022-08-19T00:24:24;32.57;;;14.07;;
60032;SDS011;45905;50.570;10.428;2022-08-19T00:26:53;24.77;;;11.93;;
60032;SDS011;45905;50.570;10.428;2022-08-19T00:29:42;21.93;;;12.00;;
60032;SDS011;45905;50.570;10.428;2022-08-19T00:32:11;33.47;;;13.57;;
60032;SDS011;45905;50.570;10.428;2022-08-19T00:34:39;28.47;;;12.33;;
60032;SDS011;45905;50.570;10.428;2022-08-19T00:37:06;26.67;;;12.70;;
60032;SDS011;45905;50.570;10.428;2022-08-19T00:39:33;23.57;;;12.80;;
60032;SDS011;45905;50.570;10.428;2022-08-19T00:42:01;27.83;;;12.20;;
60032;SDS011;45905;50.570;10.428;2022-08-19T00:44:28;26.57;;;11.40;;
60032;SDS011;45905;50.570;10.428;2022-08-19T00:46:57;27.30;;;11.03;;
60032;SDS011;45905;50.570;10.428;2022-08-19T00:52:23;28.17;;;12.80;;
60032;SDS011;45905;50.570;10.428;2022-08-19T00:55:00;22.17;;;11.40;;
60032;SDS011;45905;50.570;10.428;2022-08-19T00:57:35;31.83;;;12.70;;
60032;SDS011;45905;50.570;10.428;2022-08-19T01:00:08;32.90;;;14.97;;
60032;SDS011;45905;50.570;10.428;2022-08-19T01:02:40;26.97;;;12.70;;
60032;SDS011;45905;50.570;10.428;2022-08-19T01:05:11;19.67;;;10.20;;
60032;SDS011;45905;50.570;10.428;2022-08-19T01:07:47;28.27;;;10.93;;
60032;SDS011;45905;50.570;10.428;2022-08-19T01:10:18;23.03;;;11.67;;
60032;SDS011;45905;50.570;10.428;2022-08-19T01:12:51;22.93;;;11.87;;
60032;SDS011;45905;50.570;10.428;2022-08-19T01:15:22;26.37;;;12.97;;
60032;SDS011;45905;50.570;10.428;2022-08-19T01:17:56;25.17;;;11.37;;
60032;SDS011;45905;50.570;10.428;2022-08-19T01:20:30;24.70;;;12.53;;
60032;SDS011;45905;50.570;10.428;2022-08-19T01:22:58;21.57;;;10.70;;
60032;SDS011;45905;50.570;10.428;2022-08-19T01:25:32;27.03;;;11.73;;
60032;SDS011;45905;50.570;10.428;2022-08-19T01:28:19;22.73;;;11.10;;
60032;SDS011;45905;50.570;10.428;2022-08-19T01:31:06;25.53;;;11.90;;
60032;SDS011;45905;50.570;10.428;2022-08-19T01:33:53;24.30;;;11.30;;
60032;SDS011;45905;50.570;10.428;2022-08-19T01:36:28;28.70;;;11.67;;
60032;SDS011;45905;50.570;10.428;2022-08-19T01:39:01;30.77;;;12.87;;
60032;SDS011;45905;50.570;10.428;2022-08-19T01:41:35;38.23;;;12.20;;
60032;SDS011;45905;50.570;10.428;2022-08-19T01:44:04;22.90;;;11.43;;
60032;SDS011;45905;50.570;10.428;2022-08-19T01:46:44;22.67;;;12.67;;
60032;SDS011;45905;50.570;10.428;2022-08-19T01:49:14;35.67;;;13.90;;
60032;SDS011;45905;50.570;10.428;2022-08-19T01:51:45;28.27;;;13.83;;
60032;SDS011;45905;50.570;10.428;2022-08-19T01:54:13;23.77;;;11.13;;
60032;SDS011;45905;50.570;10.428;2022-08-19T01:56:54;22.53;;;10.90;;
60032;SDS011;45905;50.570;10.428;2022-08-19T01:59:28;30.73;;;11.40;;
60032;SDS011;45905;50.570;10.428;2022-08-19T02:01:56;31.83;;;11.43;;
60032;SDS011;45905;50.570;10.428;2022-08-19T02:04:24;21.20;;;11.00;;
60032;SDS011;45905;50.570;10.428;2022-08-19T02:06:51;29.87;;;14.40;;
60032;SDS011;45905;50.570;10.428;2022-08-19T02:09:19;27.73;;;12.03;;
60032;SDS011;45905;50.570;10.428;2022-08-19T02:11:46;32.27;;;15.40;;
60032;SDS011;45905;50.570;10.428;2022-08-19T02:14:13;30.07;;;12.13;;
60032;SDS011;45905;50.570;10.428;2022-08-19T02:16:40;20.97;;;10.93;;
60032;SDS011;45905;50.570;10.428;2022-08-19T02:19:07;20.30;;;10.47;;
60032;SDS011;45905;50.570;10.428;2022-08-19T02:21:36;28.93;;;12.67;;
60032;SDS011;45905;50.570;10.428;2022-08-19T02:24:04;27.60;;;12.23;;
60032;SDS011;45905;50.570;10.428;2022-08-19T02:26:31;19.10;;;9.63;;
60032;SDS011;45905;50.570;10.428;2022-08-19T02:28:59;22.43;;;11.63;;
60032;SDS011;45905;50.570;10.428;2022-08-19T02:31:27;32.47;;;13.30;;
60032;SDS011;45905;50.570;10.428;2022-08-19T02:33:54;25.30;;;12.63;;
60032;SDS011;45905;50.570;10.428;2022-08-19T02:36:23;21.60;;;11.33;;
60032;SDS011;45905;50.570;10.428;2022-08-19T02:38:52;26.03;;;10.77;;
60032;SDS011;45905;50.570;10.428;2022-08-19T02:41:26;23.30;;;10.73;;
60032;SDS011;45905;50.570;10.428;2022-08-19T02:43:59;21.30;;;11.10;;
60032;SDS011;45905;50.570;10.428;2022-08-19T02:46:50;15.13;;;9.10;;
60032;SDS011;45905;50.570;10.428;2022-08-19T02:49:18;21.20;;;10.67;;
60032;SDS011;45905;50.570;10.428;2022-08-19T02:51:46;28.73;;;12.20;;
60032;SDS011;45905;50.570;10.428;2022-08-19T02:54:14;23.43;;;10.70;;
60032;SDS011;45905;50.570;10.428;2022-08-19T02:56:42;21.67;;;10.93;;
60032;SDS011;45905;50.570;10.428;2022-08-19T02:59:11;16.10;;;9.20;;
60032;SDS011;45905;50.570;10.428;2022-08-19T03:01:39;24.27;;;12.10;;
60032;SDS011;45905;50.570;10.428;2022-08-19T03:04:09;29.77;;;11.87;;
60032;SDS011;45905;50.570;10.428;2022-08-19T03:06:40;20.60;;;10.70;;
60032;SDS011;45905;50.570;10.428;2022-08-19T03:09:11;29.20;;;11.40;;
60032;SDS011;45905;50.570;10.428;2022-08-19T03:11:39;25.73;;;10.90;;
60032;SDS011;45905;50.570;10.428;2022-08-19T03:14:07;22.40;;;10.93;;
60032;SDS011;45905;50.570;10.428;2022-08-19T03:16:47;20.03;;;10.90;;
60032;SDS011;45905;50.570;10.428;2022-08-19T03:19:17;18.77;;;11.20;;
60032;SDS011;45905;50.570;10.428;2022-08-19T03:21:47;31.20;;;12.30;;
60032;SDS011;45905;50.570;10.428;2022-08-19T03:24:16;23.17;;;12.43;;
60032;SDS011;45905;50.570;10.428;2022-08-19T03:26:46;23.53;;;10.70;;
60032;SDS011;45905;50.570;10.428;2022-08-19T03:29:18;26.13;;;12.43;;
60032;SDS011;45905;50.570;10.428;2022-08-19T03:31:56;25.83;;;11.50;;
60032;SDS011;45905;50.570;10.428;2022-08-19T03:34:31;23.53;;;10.93;;
60032;SDS011;45905;50.570;10.428;2022-08-19T03:37:03;15.83;;;9.07;;
60032;SDS011;45905;50.570;10.428;2022-08-19T03:39:38;22.80;;;10.80;;
60032;SDS011;45905;50.570;10.428;2022-08-19T03:42:08;22.73;;;11.33;;
60032;SDS011;45905;50.570;10.428;2022-08-19T03:44:57;21.47;;;9.80;;
60032;SDS011;45905;50.570;10.428;2022-08-19T03:47:24;22.23;;;11.30;;
60032;SDS011;45905;50.570;10.428;2022-08-19T03:49:52;27.20;;;11.30;;
60032;SDS011;45905;50.570;10.428;2022-08-19T03:52:19;22.80;;;11.43;;
60032;SDS011;45905;50.570;10.428;2022-08-19T03:54:46;21.27;;;10.00;;
60032;SDS011;45905;50.570;10.428;2022-08-19T03:57:13;27.40;;;12.03;;
60032;SDS011;45905;50.570;10.428;2022-08-19T03:59:40;22.70;;;10.20;;
60032;SDS011;45905;50.570;10.428;2022-08-19T04:02:09;26.57;;;11.33;;
60032;SDS011;45905;50.570;10.428;2022-08-19T04:04:38;20.20;;;8.53;;
60032;SDS011;45905;50.570;10.428;2022-08-19T04:07:10;20.13;;;10.73;;
60032;SDS011;45905;50.570;10.428;2022-08-19T04:09:42;15.73;;;8.90;;
60032;SDS011;45905;50.570;10.428;2022-08-19T04:12:10;20.87;;;10.80;;
60032;SDS011;45905;50.570;10.428;2022-08-19T04:14:37;22.50;;;11.40;;
60032;SDS011;45905;50.570;10.428;2022-08-19T04:17:05;19.97;;;10.37;;
60032;SDS011;45905;50.570;10.428;2022-08-19T04:19:33;18.47;;;10.30;;
60032;SDS011;45905;50.570;10.428;2022-08-19T04:22:02;17.17;;;9.90;;
60032;SDS011;45905;50.570;10.428;2022-08-19T04:24:31;20.53;;;10.13;;
60032;SDS011;45905;50.570;10.428;2022-08-19T04:26:59;29.80;;;11.50;;
60032;SDS011;45905;50.570;10.428;2022-08-19T04:29:28;26.23;;;11.70;;
60032;SDS011;45905;50.570;10.428;2022-08-19T04:31:56;17.20;;;9.47;;
60032;SDS011;45905;50.570;10.428;2022-08-19T04:34:26;21.33;;;9.57;;
60032;SDS011;45905;50.570;10.428;2022-08-19T04:36:56;19.70;;;10.77;;
60032;SDS011;45905;50.570;10.428;2022-08-19T04:39:26;39.97;;;11.97;;
60032;SDS011;45905;50.570;10.428;2022-08-19T04:42:17;22.33;;;11.07;;
60032;SDS011;45905;50.570;10.428;2022-08-19T04:45:04;17.70;;;9.83;;
60032;SDS011;45905;50.570;10.428;2022-08-19T04:47:38;21.23;;;11.50;;
60032;SDS011;45905;50.570;10.428;2022-08-19T04:50:23;23.90;;;10.10;;
60032;SDS011;45905;50.570;10.428;2022-08-19T04:52:52;23.40;;;11.10;;
60032;SDS011;45905;50.570;10.428;2022-08-19T04:55:22;31.87;;;13.00;;
60032;SDS011;45905;50.570;10.428;2022-08-19T04:57:52;31.47;;;15.47;;
60032;SDS011;45905;50.570;10.428;2022-08-19T05:00:20;22.93;;;10.40;;
60032;SDS011;45905;50.570;10.428;2022-08-19T05:02:48;19.80;;;10.93;;
60032;SDS011;45905;50.570;10.428;2022-08-19T05:05:15;25.20;;;14.63;;
60032;SDS011;45905;50.570;10.428;2022-08-19T05:07:43;34.37;;;15.83;;
60032;SDS011;45905;50.570;10.428;2022-08-19T05:10:11;21.30;;;11.90;;
60032;SDS011;45905;50.570;10.428;2022-08-19T05:12:39;21.40;;;12.07;;
60032;SDS011;45905;50.570;10.428;2022-08-19T05:15:06;24.53;;;11.20;;
60032;SDS011;45905;50.570;10.428;2022-08-19T05:17:37;26.10;;;13.67;;
60032;SDS011;45905;50.570;10.428;2022-08-19T05:20:24;21.47;;;11.33;;
60032;SDS011;45905;50.570;10.428;2022-08-19T05:23:11;26.70;;;12.93;;
60032;SDS011;45905;50.570;10.428;2022-08-19T05:25:48;25.47;;;14.17;;
60032;SDS011;45905;50.570;10.428;2022-08-19T05:28:18;30.10;;;13.40;;
60032;SDS011;45905;50.570;10.428;2022-08-19T05:30:46;26.03;;;12.70;;
60032;SDS011;45905;50.570;10.428;2022-08-19T05:33:17;22.60;;;12.17;;
60032;SDS011;45905;50.570;10.428;2022-08-19T05:35:45;26.00;;;14.27;;
60032;SDS011;45905;50.570;10.428;2022-08-19T05:38:12;29.80;;;15.23;;
60032;SDS011;45905;50.570;10.428;2022-08-19T05:40:39;27.70;;;13.40;;
60032;SDS011;45905;50.570;10.428;2022-08-19T05:43:06;26.43;;;12.80;;
60032;SDS011;45905;50.570;10.428;2022-08-19T05:45:39;28.17;;;13.27;;
60032;SDS011;45905;50.570;10.428;2022-08-19T05:48:09;24.90;;;13.70;;
60032;SDS011;45905;50.570;10.428;2022-08-19T05:50:39;25.50;;;13.83;;
60032;SDS011;45905;50.570;10.428;2022-08-19T05:53:07;21.60;;;12.50;;
60032;SDS011;45905;50.570;10.428;2022-08-19T05:55:35;23.13;;;12.00;;
60032;SDS011;45905;50.570;10.428;2022-08-19T05:58:04;27.20;;;13.80;;
60032;SDS011;45905;50.570;10.428;2022-08-19T06:00:34;20.40;;;11.57;;
60032;SDS011;45905;50.570;10.428;2022-08-19T06:03:03;24.70;;;11.97;;
60032;SDS011;45905;50.570;10.428;2022-08-19T06:05:38;21.57;;;11.47;;
60032;SDS011;45905;50.570;10.428;2022-08-19T06:08:17;23.37;;;11.20;;
60032;SDS011;45905;50.570;10.428;2022-08-19T06:10:45;23.33;;;12.13;;
60032;SDS011;45905;50.570;10.428;2022-08-19T06:13:12;17.87;;;10.50;;
60032;SDS011;45905;50.570;10.428;2022-08-19T06:15:39;23.87;;;11.30;;
60032;SDS011;45905;50.570;10.428;2022-08-19T06:18:10;14.87;;;9.60;;
60032;SDS011;45905;50.570;10.428;2022-08-19T06:20:38;19.83;;;11.83;;
60032;SDS011;45905;50.570;10.428;2022-08-19T06:23:21;21.07;;;10.33;;
60032;SDS011;45905;50.570;10.428;2022-08-19T06:25:49;14.60;;;9.20;;
60032;SDS011;45905;50.570;10.428;2022-08-19T06:28:16;17.97;;;10.40;;
60032;SDS011;45905;50.570;10.428;2022-08-19T06:30:44;20.33;;;9.83;;
60032;SDS011;45905;50.570;10.428;2022-08-19T06:33:11;23.10;;;9.57;;
60032;SDS011;45905;50.570;10.428;2022-08-19T06:35:39;14.87;;;8.83;;
60032;SDS011;45905;50.570;10.428;2022-08-19T06:38:08;14.07;;;7.50;;
60032;SDS011;45905;50.570;10.428;2022-08-19T06:40:35;16.83;;;9.07;;
60032;SDS011;45905;50.570;10.428;2022-08-19T06:43:04;22.27;;;8.33;;
60032;SDS011;45905;50.570;10.428;2022-08-19T06:45:36;15.03;;;8.33;;
60032;SDS011;45905;50.570;10.428;2022-08-19T06:48:05;12.17;;;7.47;;
60032;SDS011;45905;50.570;10.428;2022-08-19T06:50:33;11.93;;;6.83;;
60032;SDS011;45905;50.570;10.428;2022-08-19T06:53:04;16.83;;;8.30;;
60032;SDS011;45905;50.570;10.428;2022-08-19T06:55:32;15.83;;;8.70;;
60032;SDS011;45905;50.570;10.428;2022-08-19T06:58:02;11.97;;;7.50;;
60032;SDS011;45905;50.570;10.428;2022-08-19T07:00:31;14.20;;;6.67;;
60032;SDS011;45905;50.570;10.428;2022-08-19T07:02:59;12.50;;;7.33;;
60032;SDS011;45905;50.570;10.428;2022-08-19T07:05:37;15.73;;;7.70;;
60032;SDS011;45905;50.570;10.428;2022-08-19T07:08:11;15.07;;;8.30;;
60032;SDS011;45905;50.570;10.428;2022-08-19T07:10:42;14.47;;;8.40;;
60032;SDS011;45905;50.570;10.428;2022-08-19T07:13:12;15.47;;;8.17;;
60032;SDS011;45905;50.570;10.428;2022-08-19T07:15:39;10.67;;;6.33;;
60032;SDS011;45905;50.570;10.428;2022-08-19T07:18:08;12.93;;;6.87;;
60032;SDS011;45905;50.570;10.428;2022-08-19T07:20:37;16.03;;;6.83;;
60032;SDS011;45905;50.570;10.428;2022-08-19T07:23:07;8.83;;;6.20;;
60032;SDS011;45905;50.570;10.428;2022-08-19T07:25:42;13.33;;;6.00;;
60032;SDS011;45905;50.570;10.428;2022-08-19T07:28:18;17.77;;;6.33;;
60032;SDS011;45905;50.570;10.428;2022-08-19T07:30:50;9.93;;;6.40;;
60032;SDS011;45905;50.570;10.428;2022-08-19T07:33:19;7.97;;;4.90;;
60032;SDS011;45905;50.570;10.428;2022-08-19T07:35:53;11.20;;;5.17;;
60032;SDS011;45905;50.570;10.428;2022-08-19T07:38:22;8.43;;;4.63;;
60032;SDS011;45905;50.570;10.428;2022-08-19T07:40:49;11.03;;;6.33;;
60032;SDS011;45905;50.570;10.428;2022-08-19T07:43:20;7.43;;;3.60;;
60032;SDS011;45905;50.570;10.428;2022-08-19T07:46:00;16.50;;;5.97;;
60032;SDS011;45905;50.570;10.428;2022-08-19T07:48:42;7.67;;;4.70;;
60032;SDS011;45905;50.570;10.428;2022-08-19T07:51:15;5.37;;;4.17;;
60032;SDS011;45905;50.570;10.428;2022-08-19T07:54:02;5.97;;;4.50;;
60032;SDS011;45905;50.570;10.428;2022-08-19T07:56:30;14.77;;;4.77;;
60032;SDS011;45905;50.570;10.428;2022-08-19T07:58:58;12.63;;;4.47;;
60032;SDS011;45905;50.570;10.428;2022-08-19T08:01:27;8.20;;;4.20;;
60032;SDS011;45905;50.570;10.428;2022-08-19T08:03:55;6.90;;;4.07;;
60032;SDS011;45905;50.570;10.428;2022-08-19T08:06:43;6.20;;;4.10;;
60032;SDS011;45905;50.570;10.428;2022-08-19T08:09:35;7.97;;;3.40;;
60032;SDS011;45905;50.570;10.428;2022-08-19T08:12:20;14.30;;;4.17;;
60032;SDS011;45905;50.570;10.428;2022-08-19T08:15:07;10.87;;;3.57;;
60032;SDS011;45905;50.570;10.428;2022-08-19T08:17:43;5.00;;;4.10;;
60032;SDS011;45905;50.570;10.428;2022-08-19T08:20:17;5.47;;;4.07;;
60032;SDS011;45905;50.570;10.428;2022-08-19T08:22:50;3.80;;;3.33;;
60032;SDS011;45905;50.570;10.428;2022-08-19T08:25:42;6.07;;;4.40;;
60032;SDS011;45905;50.570;10.428;2022-08-19T08:28:15;11.00;;;4.20;;
60032;SDS011;45905;50.570;10.428;2022-08-19T08:30:44;7.80;;;4.87;;
60032;SDS011;45905;50.570;10.428;2022-08-19T08:33:19;10.20;;;5.27;;
60032;SDS011;45905;50.570;10.428;2022-08-19T08:36:01;4.70;;;3.90;;
60032;SDS011;45905;50.570;10.428;2022-08-19T08:38:47;10.43;;;4.73;;
60032;SDS011;45905;50.570;10.428;2022-08-19T08:44:00;9.70;;;4.40;;
60032;SDS011;45905;50.570;10.428;2022-08-19T08:46:47;5.00;;;4.10;;
60032;SDS011;45905;50.570;10.428;2022-08-19T08:52:24;12.83;;;3.93;;
60032;SDS011;45905;50.570;10.428;2022-08-19T08:55:26;6.93;;;3.93;;
60032;SDS011;45905;50.570;10.428;2022-08-19T08:58:06;5.27;;;3.83;;
60032;SDS011;45905;50.570;10.428;2022-08-19T09:01:01;4.80;;;3.53;;
60032;SDS011;45905;50.570;10.428;2022-08-19T09:03:41;3.33;;;2.80;;
60032;SDS011;45905;50.570;10.428;2022-08-19T09:15:32;4.43;;;2.57;;
60032;SDS011;45905;50.570;10.428;2022-08-19T09:18:23;15.90;;;3.53;;
60032;SDS011;45905;50.570;10.428;2022-08-19T09:20:56;14.60;;;5.00;;
60032;SDS011;45905;50.570;10.428;2022-08-19T09:23:26;2.80;;;2.20;;
60032;SDS011;45905;50.570;10.428;2022-08-19T09:26:06;3.93;;;2.87;;
60032;SDS011;45905;50.570;10.428;2022-08-19T09:28:43;2.23;;;1.67;;
60032;SDS011;45905;50.570;10.428;2022-08-19T09:31:16;4.47;;;2.00;;
60032;SDS011;45905;50.570;10.428;2022-08-19T09:33:49;5.30;;;2.40;;
60032;SDS011;45905;50.570;10.428;2022-08-19T09:36:31;3.50;;;2.03;;
60032;SDS011;45905;50.570;10.428;2022-08-19T09:39:00;3.93;;;2.30;;
60032;SDS011;45905;50.570;10.428;2022-08-19T09:41:42;6.20;;;2.37;;
60032;SDS011;45905;50.570;10.428;2022-08-19T09:44:24;3.67;;;2.27;;
60032;SDS011;45905;50.570;10.428;2022-08-19T09:46:53;2.93;;;2.63;;
60032;SDS011;45905;50.570;10.428;2022-08-19T09:49:20;5.77;;;2.50;;
60032;SDS011;45905;50.570;10.428;2022-08-19T09:51:53;3.90;;;2.40;;
60032;SDS011;45905;50.570;10.428;2022-08-19T09:54:22;3.40;;;1.83;;
60032;SDS011;45905;50.570;10.428;2022-08-19T09:56:51;3.87;;;2.83;;
60032;SDS011;45905;50.570;10.428;2022-08-19T09:59:20;6.70;;;2.13;;
60032;SDS011;45905;50.570;10.428;2022-08-19T10:01:48;3.73;;;1.53;;
60032;SDS011;45905;50.570;10.428;2022-08-19T10:04:17;4.40;;;2.00;;
60032;SDS011;45905;50.570;10.428;2022-08-19T10:06:45;3.03;;;2.10;;
60032;SDS011;45905;50.570;10.428;2022-08-19T10:09:19;3.90;;;2.07;;
60032;SDS011;45905;50.570;10.428;2022-08-19T10:12:00;4.90;;;2.03;;
60032;SDS011;45905;50.570;10.428;2022-08-19T10:14:31;2.07;;;1.87;;
60032;SDS011;45905;50.570;10.428;2022-08-19T10:16:59;4.43;;;1.93;;
60032;SDS011;45905;50.570;10.428;2022-08-19T10:19:43;2.17;;;1.60;;
60032;SDS011;45905;50.570;10.428;2022-08-19T10:22:21;5.33;;;2.10;;
60032;SDS011;45905;50.570;10.428;2022-08-19T10:24:51;1.50;;;1.40;;
60032;SDS011;45905;50.570;10.428;2022-08-19T10:27:19;3.27;;;1.90;;
60032;SDS011;45905;50.570;10.428;2022-08-19T10:29:46;2.03;;;1.83;;
60032;SDS011;45905;50.570;10.428;2022-08-19T10:32:14;1.57;;;1.47;;
60032;SDS011;45905;50.570;10.428;2022-08-19T10:34:41;3.13;;;1.93;;
60032;SDS011;45905;50.570;10.428;2022-08-19T10:37:14;3.27;;;2.40;;
60032;SDS011;45905;50.570;10.428;2022-08-19T10:39:56;3.40;;;2.20;;
60032;SDS011;45905;50.570;10.428;2022-08-19T10:42:24;1.80;;;1.43;;
60032;SDS011;45905;50.570;10.428;2022-08-19T10:44:51;2.40;;;1.67;;
60032;SDS011;45905;50.570;10.428;2022-08-19T10:47:18;2.40;;;1.70;;
60032;SDS011;45905;50.570;10.428;2022-08-19T10:49:54;4.53;;;1.63;;
60032;SDS011;45905;50.570;10.428;2022-08-19T10:52:46;2.80;;;1.70;;
60032;SDS011;45905;50.570;10.428;2022-08-19T10:55:29;2.27;;;1.60;;
60032;SDS011;45905;50.570;10.428;2022-08-19T10:58:17;2.10;;;1.50;;
60032;SDS011;45905;50.570;10.428;2022-08-19T11:00:53;2.07;;;1.83;;
60032;SDS011;45905;50.570;10.428;2022-08-19T11:03:31;2.23;;;1.33;;
60032;SDS011;45905;50.570;10.428;2022-08-19T11:06:11;1.67;;;1.40;;
60032;SDS011;45905;50.570;10.428;2022-08-19T11:08:39;5.73;;;1.87;;
60032;SDS011;45905;50.570;10.428;2022-08-19T11:11:08;3.60;;;1.90;;
60032;SDS011;45905;50.570;10.428;2022-08-19T11:13:36;1.77;;;1.67;;
60032;SDS011;45905;50.570;10.428;2022-08-19T11:16:07;3.87;;;1.70;;
60032;SDS011;45905;50.570;10.428;2022-08-19T11:18:44;2.60;;;1.47;;
60032;SDS011;45905;50.570;10.428;2022-08-19T11:23:48;3.10;;;1.60;;
60032;SDS011;45905;50.570;10.428;2022-08-19T11:26:19;6.03;;;1.47;;
60032;SDS011;45905;50.570;10.428;2022-08-19T11:28:50;4.07;;;2.27;;
60032;SDS011;45905;50.570;10.428;2022-08-19T11:31:21;4.07;;;1.60;;
60032;SDS011;45905;50.570;10.428;2022-08-19T11:33:58;2.57;;;1.53;;
60032;SDS011;45905;50.570;10.428;2022-08-19T11:36:28;1.70;;;0.93;;
60032;SDS011;45905;50.570;10.428;2022-08-19T11:38:58;1.70;;;1.60;;
60032;SDS011;45905;50.570;10.428;2022-08-19T11:41:27;7.00;;;1.53;;
60032;SDS011;45905;50.570;10.428;2022-08-19T11:43:54;3.70;;;1.70;;
60032;SDS011;45905;50.570;10.428;2022-08-19T11:46:23;1.80;;;1.67;;
60032;SDS011;45905;50.570;10.428;2022-08-19T11:48:56;2.33;;;1.50;;
60032;SDS011;45905;50.570;10.428;2022-08-19T11:51:26;2.10;;;1.60;;
60032;SDS011;45905;50.570;10.428;2022-08-19T11:53:54;2.87;;;1.57;;
60032;SDS011;45905;50.570;10.428;2022-08-19T11:56:24;1.80;;;1.20;;
60032;SDS011;45905;50.570;10.428;2022-08-19T11:58:53;1.80;;;1.40;;
60032;SDS011;45905;50.570;10.428;2022-08-19T12:01:23;2.97;;;1.53;;
60032;SDS011;45905;50.570;10.428;2022-08-19T12:03:53;3.73;;;1.93;;
60032;SDS011;45905;50.570;10.428;2022-08-19T12:06:27;2.47;;;1.90;;
60032;SDS011;45905;50.570;10.428;2022-08-19T12:09:00;2.80;;;2.00;;
60032;SDS011;45905;50.570;10.428;2022-08-19T12:11:32;2.33;;;1.60;;
60032;SDS011;45905;50.570;10.428;2022-08-19T12:14:00;1.70;;;1.50;;
60032;SDS011;45905;50.570;10.428;2022-08-19T12:16:29;1.67;;;1.13;;
60032;SDS011;45905;50.570;10.428;2022-08-19T12:18:58;3.30;;;1.50;;
60032;SDS011;45905;50.570;10.428;2022-08-19T12:21:31;2.63;;;1.30;;
60032;SDS011;45905;50.570;10.428;2022-08-19T12:24:01;1.90;;;1.50;;
60032;SDS011;45905;50.570;10.428;2022-08-19T12:26:32;1.83;;;1.43;;
60032;SDS011;45905;50.570;10.428;2022-08-19T12:29:17;1.73;;;1.20;;
60032;SDS011;45905;50.570;10.428;2022-08-19T12:31:49;2.53;;;1.90;;
60032;SDS011;45905;50.570;10.428;2022-08-19T12:34:17;2.13;;;1.60;;
60032;SDS011;45905;50.570;10.428;2022-08-19T12:36:46;1.67;;;1.50;;
60032;SDS011;45905;50.570;10.428;2022-08-19T12:39:15;5.43;;;1.53;;
60032;SDS011;45905;50.570;10.428;2022-08-19T12:41:43;2.90;;;1.90;;
60032;SDS011;45905;50.570;10.428;2022-08-19T12:44:20;1.73;;;1.40;;
60032;SDS011;45905;50.570;10.428;2022-08-19T12:46:54;4.80;;;1.70;;
60032;SDS011;45905;50.570;10.428;2022-08-19T12:49:21;4.40;;;1.70;;
60032;SDS011;45905;50.570;10.428;2022-08-19T12:52:09;2.53;;;1.50;;
60032;SDS011;45905;50.570;10.428;2022-08-19T12:54:39;2.43;;;1.47;;
60032;SDS011;45905;50.570;10.428;2022-08-19T12:57:07;2.30;;;1.50;;
60032;SDS011;45905;50.570;10.428;2022-08-19T12:59:36;2.47;;;1.43;;
60032;SDS011;45905;50.570;10.428;2022-08-19T13:02:04;1.30;;;0.87;;
60032;SDS011;45905;50.570;10.428;2022-08-19T13:04:34;2.07;;;1.17;;
60032;SDS011;45905;50.570;10.428;2022-08-19T13:07:04;4.70;;;1.70;;
60032;SDS011;45905;50.570;10.428;2022-08-19T13:09:31;2.30;;;2.10;;
60032;SDS011;45905;50.570;10.428;2022-08-19T13:11:58;3.77;;;1.40;;
60032;SDS011;45905;50.570;10.428;2022-08-19T13:14:28;2.10;;;1.50;;
60032;SDS011;45905;50.570;10.428;2022-08-19T13:16:59;3.13;;;1.47;;
60032;SDS011;45905;50.570;10.428;2022-08-19T13:19:26;3.87;;;1.33;;
60032;SDS011;45905;50.570;10.428;2022-08-19T13:21:53;1.57;;;0.97;;
60032;SDS011;45905;50.570;10.428;2022-08-19T13:24:25;2.00;;;1.23;;
60032;SDS011;45905;50.570;10.428;2022-08-19T13:27:02;1.83;;;1.27;;
60032;SDS011;45905;50.570;10.428;2022-08-19T13:29:29;4.60;;;1.80;;
60032;SDS011;45905;50.570;10.428;2022-08-19T13:32:15;1.50;;;1.30;;
60032;SDS011;45905;50.570;10.428;2022-08-19T13:35:01;1.77;;;1.43;;
60032;SDS011;45905;50.570;10.428;2022-08-19T13:37:29;2.07;;;1.30;;
60032;SDS011;45905;50.570;10.428;2022-08-19T13:42:50;3.53;;;2.03;;
60032;SDS011;45905;50.570;10.428;2022-08-19T13:45:22;1.80;;;1.50;;
60032;SDS011;45905;50.570;10.428;2022-08-19T13:47:53;1.70;;;1.60;;
60032;SDS011;45905;50.570;10.428;2022-08-19T13:50:26;2.00;;;1.40;;
60032;SDS011;45905;50.570;10.428;2022-08-19T13:52:55;1.93;;;1.20;;
60032;SDS011;45905;50.570;10.428;2022-08-19T13:55:24;2.10;;;1.83;;
60032;SDS011;45905;50.570;10.428;2022-08-19T13:57:53;1.87;;;1.37;;
60032;SDS011;45905;50.570;10.428;2022-08-19T14:00:24;2.10;;;1.57;;
60032;SDS011;45905;50.570;10.428;2022-08-19T14:02:55;2.37;;;1.60;;
60032;SDS011;45905;50.570;10.428;2022-08-19T14:05:24;1.50;;;1.30;;
60032;SDS011;45905;50.570;10.428;2022-08-19T14:07:55;1.63;;;1.53;;
60032;SDS011;45905;50.570;10.428;2022-08-19T14:10:23;4.00;;;1.80;;
60032;SDS011;45905;50.570;10.428;2022-08-19T14:12:52;2.80;;;1.50;;
60032;SDS011;45905;50.570;10.428;2022-08-19T14:15:25;2.10;;;1.67;;
60032;SDS011;45905;50.570;10.428;2022-08-19T14:17:54;1.60;;;1.50;;
60032;SDS011;45905;50.570;10.428;2022-08-19T14:20:22;2.73;;;1.80;;
60032;SDS011;45905;50.570;10.428;2022-08-19T14:22:51;2.00;;;1.80;;
60032;SDS011;45905;50.570;10.428;2022-08-19T14:25:22;4.70;;;1.77;;
60032;SDS011;45905;50.570;10.428;2022-08-19T14:27:52;1.80;;;1.53;;
60032;SDS011;45905;50.570;10.428;2022-08-19T14:30:25;9.03;;;2.03;;
60032;SDS011;45905;50.570;10.428;2022-08-19T14:32:57;2.70;;;2.20;;
60032;SDS011;45905;50.570;10.428;2022-08-19T14:35:27;1.77;;;1.30;;
60032;SDS011;45905;50.570;10.428;2022-08-19T14:37:56;7.33;;;2.50;;
60032;SDS011;45905;50.570;10.428;2022-08-19T14:40:25;2.90;;;1.50;;
60032;SDS011;45905;50.570;10.428;2022-08-19T14:42:56;3.50;;;1.67;;
60032;SDS011;45905;50.570;10.428;2022-08-19T14:45:31;1.77;;;1.33;;
60032;SDS011;45905;50.570;10.428;2022-08-19T14:48:07;2.10;;;1.90;;
60032;SDS011;45905;50.570;10.428;2022-08-19T14:50:44;1.97;;;1.63;;
60032;SDS011;45905;50.570;10.428;2022-08-19T14:53:12;4.10;;;2.10;;
60032;SDS011;45905;50.570;10.428;2022-08-19T14:55:42;7.97;;;1.63;;
60032;SDS011;45905;50.570;10.428;2022-08-19T14:58:12;3.57;;;1.77;;
60032;SDS011;45905;50.570;10.428;2022-08-19T15:00:56;3.43;;;1.60;;
60032;SDS011;45905;50.570;10.428;2022-08-19T15:03:26;1.70;;;1.27;;
60032;SDS011;45905;50.570;10.428;2022-08-19T15:05:55;1.70;;;1.60;;
60032;SDS011;45905;50.570;10.428;2022-08-19T15:08:24;1.93;;;1.50;;
60032;SDS011;45905;50.570;10.428;2022-08-19T15:10:53;1.50;;;1.40;;
60032;SDS011;45905;50.570;10.428;2022-08-19T15:13:20;2.50;;;1.43;;
60032;SDS011;45905;50.570;10.428;2022-08-19T15:15:48;3.73;;;1.83;;